Hlavní strana
METAR-TAF:

METAR-TAF

Letiště :

Ammán, Jordánsko

zeměpisná šířka: 31-59N, zeměpisná délka: 035-59E, výška: 767 m

Aktuální stav počasí

Zpráva byla vytvořena před 24 minutami, v 18:00 UTC
Jihojihozápadní vítr 4 kt
Teplota 11°C
Vlhkost vzduchu 58%
Tlak 1017 hPa
Viditelnost: 5000 m
zákal

METAR: OJAM 141800Z 20004KT 5000 HZ NSC 11/03 Q1017 NOSIG

Čas: 20:24 (18:24 UTC)

Předpověď počasí

Zpráva byla vytvořena před 1 hodinou a 25 minutami, v 16:59 UTC
Předpověď platná od 14 v 18 UTC do 15 v 24 UTC
Jihojihozápadní vítr 4 kt
Viditelnost: 5000 m
zákal
Pravděpodobnost 40%
od 15 v 02 UTC do 15 v 06 UTC
Viditelnost: 4000 m
kouřmo
Pravděpodobnost 30% :
Dočasný
od 15 v 12 UTC do 15 v 24 UTC
Východojihovýchodní vítr 14 kt
Viditelnost: 3000 m
Polojasno ve výšce 4000 ft
Oblačno až skoro zataženo ve výšce 8000 ft
slabý déšť, rozsáhlý prach

TAF: OJAM 141659Z 1418/1524 20004KT 5000 HZ NSC PROB40 1502/1506 4000 BR PROB30 TEMPO 1512/1524 12014KT 3000 -RA DU SCT040 BKN080

Stav a předpovědi počasí z více než 4 000 letišť (zprávy METAR a TAF).

Červené a žluté tečky na mapě představují dostupné meteorologické stanice.

Když kurzor umístíte na tečku, zobrazí se název stanice.

Pak kliknutím zobrazíte stav a předpověď počasí.

Chcete-li změnit mapu, kliknutím na zelené tlačítko se znaménkem +mapu přiblížíte, kliknutím na zelené tlačítko se znaménkem – mapu oddálíte a kliknutím na zelené šipky přejdete na sousední mapy.


METAR-TAF: